Latest Weather Observations for Essendon Airport

IDV60801

Issued at 2:32 pm EST Tuesday 26 July 2016 (issued every 30 minutes, with the page automatically refreshed every 10 minutes)

About weather observations | Map of weather stations | Latest weather observations for VIC | Other Formats
Station Details ID: 086038 Name: ESSENDON AIRPORT Lat: -37.73 Lon: 144.91 Height: 78.4 m
Data from the previous 72 hours. | See also: Recent months at Essendon Airport
Date/Time
EST
Temp
°C
App
Temp
°C
Dew
Point
°C
Rel
Hum
%
Delta-T
°C
Wind Press
QNH
hPa
Press
MSL
hPa
Rain since
9am
mm
Dir  Spd
km/h
Gust
km/h
Spd
kts
Gust
kts
26/02:30pm 9.2 4.1 4.0 70 2.3 N 20 28 11 15 1010.3 1010.4 0.0
26/02:00pm 9.2 3.3 3.8 69 2.4 NNW 24 33 13 18 1010.7 1010.8 0.0
26/01:30pm 8.9 1.8 3.5 69 2.3 N 30 43 16 23 1011.0 1011.1 0.0
26/01:00pm 8.9 1.8 3.3 68 2.4 NNW 30 43 16 23 1011.5 1011.7 0.0
26/12:30pm 8.7 2.7 3.3 69 2.3 NNW 24 37 13 20 1012.2 1012.4 0.0
26/12:00pm 8.6 2.2 3.4 70 2.2 NNW 26 39 14 21 1012.6 1012.8 0.0
26/11:30am 8.3 2.3 3.6 72 2.0 N 24 32 13 17 1012.8 1013.0 0.0
26/11:00am 8.3 0.8 3.6 72 2.0 N 32 43 17 23 1012.9 1013.1 0.0
26/10:30am 7.8 0.1 3.3 73 1.9 NNW 33 46 18 25 1012.8 1013.0 0.0
26/10:00am 7.5 0.0 3.6 76 1.7 N 32 43 17 23 1012.8 1013.0 0.0
26/09:30am 7.0 0.2 3.3 77 1.6 N 28 37 15 20 1012.5 1012.7 0.0
26/09:00am 7.0 0.2 3.1 76 1.6 N 28 39 15 21 1012.7 1012.9 3.8
26/08:30am 6.4 0.3 2.5 76 1.6 NNW 24 32 13 17 1012.5 1012.7 3.8
26/08:00am 5.6 -0.2 2.4 80 1.3 N 22 28 12 15 1012.5 1012.7 3.8
26/07:30am 6.2 0.9 1.7 73 1.8 NNW 19 28 10 15 1012.3 1012.5 3.8
26/07:00am 6.5 1.2 2.0 73 1.8 NNW 19 24 10 13 1011.8 1012.0 3.8
26/06:30am 5.7 0.8 2.2 78 1.4 N 17 22 9 12 1011.7 1011.9 3.8
26/06:00am 5.1 0.6 1.9 80 1.3 N 15 17 8 9 1011.1 1011.2 3.8
26/05:30am 5.2 0.3 1.9 79 1.3 NNW 17 22 9 12 1010.7 1010.8 3.8
26/05:00am 5.8 0.9 1.9 76 1.6 NNW 17 22 9 12 1010.5 1010.6 3.8
26/04:30am 5.4 1.2 1.5 76 1.6 N 13 19 7 10 1010.1 1010.2 3.8
26/04:00am 5.6 1.3 1.3 74 1.7 N 13 17 7 9 1010.0 1010.1 3.8
26/03:30am 6.4 1.8 1.3 70 2.0 NNW 15 20 8 11 1009.9 1010.0 3.8
26/03:00am 7.1 0.7 1.2 66 2.4 NW 24 33 13 18 1009.8 1009.9 3.8
26/02:30am 7.3 1.3 1.2 65 2.5 NW 22 35 12 19 1009.6 1009.7 3.8
26/02:00am 7.8 1.4 1.2 63 2.7 NW 24 41 13 22 1009.4 1009.5 3.8
26/01:30am 7.3 2.3 1.4 66 2.4 NW 17 22 9 12 1009.4 1009.5 3.8
26/01:00am 7.2 2.6 1.3 66 2.4 NW 15 24 8 13 1009.1 1009.2 3.8
26/12:30am 7.1 2.5 1.6 68 2.2 NNW 15 24 8 13 1009.0 1009.1 3.8
26/12:00am 7.8 2.3 1.6 65 2.5 NW 20 30 11 16 1008.6 1008.7 3.8
 
Date/Time
EST
Temp
°C
App
Temp
°C
Dew
Point
°C
Rel
Hum
%
Delta-T
°C
Wind Press
QNH
hPa
Press
MSL
hPa
Rain since
9am
mm
Dir  Spd
km/h
Gust
km/h
Spd
kts
Gust
kts
25/11:30pm 7.6 1.8 2.1 68 2.3 WNW 22 35 12 19 1008.3 1008.4 3.8
25/11:00pm 7.7 1.5 2.2 68 2.3 WNW 24 39 13 21 1008.1 1008.2 3.8
25/10:30pm 7.8 0.5 2.7 70 2.1 WNW 30 48 16 26 1007.7 1007.8 3.6
25/10:00pm 6.7 1.4 3.0 77 1.6 NNW 20 30 11 16 1007.4 1007.5 3.6
25/09:30pm 7.2 0.4 3.1 75 1.7 WNW 28 41 15 22 1007.4 1007.5 3.6
25/09:00pm 7.6 -1.6 3.6 76 1.7 W 41 69 22 37 1007.5 1007.6 3.6
25/08:45pm 8.7 1.4 4.3 74 1.9 W 32 69 17 37 1006.9 1007.0 3.4
25/08:30pm 10.0 4.8 5.4 73 2.1 W 22 35 12 19 1006.3 1006.4 3.4
25/08:00pm 10.5 6.0 6.3 75 2.0 NW 19 33 10 18 1005.6 1005.7 3.4
25/07:30pm 9.9 6.2 7.8 87 1.0 NW 17 26 9 14 1005.4 1005.5 3.2
25/07:03pm 9.7 4.4 8.6 93 0.5 WNW 26 41 14 22 1005.2 1005.3 3.2
25/07:00pm 9.7 4.1 8.6 93 0.5 WNW 28 41 15 22 1005.2 1005.3 3.2
25/06:53pm 9.7 4.8 8.6 93 0.5 WNW 24 39 13 21 1005.3 1005.4 3.0
25/06:35pm 10.5 3.3 7.7 83 1.4 NW 35 54 19 29 1005.1 1005.2 0.8
25/06:30pm 11.1 3.5 7.6 79 1.7 NW 37 48 20 26 1004.7 1004.8 0.2
25/06:26pm 11.3 3.6 7.2 76 2.0 NW 37 52 20 28 1004.4 1004.5 0.0
25/06:00pm 11.0 4.0 6.9 76 2.0 N 33 52 18 28 1003.0 1003.1 0.0
25/05:30pm 11.3 3.8 6.4 72 2.3 N 35 54 19 29 1002.6 1002.7 0.0
25/05:00pm 11.6 3.7 6.3 70 2.5 N 37 54 20 29 1002.6 1002.7 0.0
25/04:30pm 11.6 4.1 6.1 69 2.6 N 35 56 19 30 1003.4 1003.5 0.0
25/04:04pm 11.9 3.4 5.3 64 3.1 N 39 69 21 37 1003.7 1003.8 0.0
25/04:00pm 11.9 4.2 5.3 64 3.1 N 35 52 19 28 1003.8 1003.9 0.0
25/03:30pm 12.1 3.6 5.3 63 3.2 N 39 57 21 31 1004.2 1004.3 0.0
25/03:24pm 12.1 3.9 4.8 61 3.3 N 37 57 20 31 1004.3 1004.4 0.0
25/03:00pm 12.6 5.1 4.3 57 3.8 NNW 33 48 18 26 1004.8 1004.9 0.0
25/02:30pm 12.4 5.4 4.1 57 3.8 N 30 39 16 21 1005.2 1005.3 0.0
25/02:00pm 12.5 5.0 4.5 58 3.7 NNW 33 46 18 25 1005.6 1005.7 0.0
25/01:30pm 12.4 5.0 3.9 56 3.8 NNW 32 39 17 21 1006.2 1006.3 0.0
25/01:00pm 12.6 6.1 4.6 58 3.7 NNW 28 39 15 21 1007.2 1007.3 0.0
25/12:44pm 12.6 5.5 3.8 55 4.0 NNW 30 50 16 27 1007.5 1007.6 0.0
25/12:30pm 12.5 4.6 4.5 58 3.7 NNW 35 46 19 25 1007.6 1007.7 0.0
25/12:00pm 12.0 5.6 5.2 63 3.2 NW 28 44 15 24 1008.2 1008.3 0.0
25/11:30am 12.1 6.1 5.3 63 3.2 NW 26 39 14 21 1008.5 1008.6 0.0
25/11:10am 11.6 5.3 5.5 66 2.8 NW 28 46 15 25 1008.8 1008.9 0.0
25/11:00am 11.8 6.8 6.3 69 2.6 NW 22 35 12 19 1009.0 1009.1 0.0
25/10:30am 10.9 6.3 6.3 73 2.2 NW 20 35 11 19 1009.3 1009.4 0.0
25/10:00am 10.2 6.5 6.2 76 1.9 NNW 15 20 8 11 1009.1 1009.2 0.0
25/09:30am 9.9 5.1 5.7 75 1.9 NW 20 26 11 14 1009.1 1009.2 0.0
25/09:00am 9.9 4.4 5.7 75 1.9 NW 24 32 13 17 1008.7 1008.8 0.0
25/08:30am 9.1 3.9 5.5 78 1.6 NNW 22 28 12 15 1008.5 1008.6 0.0
25/08:00am 8.1 3.4 5.2 82 1.3 NNW 19 26 10 14 1008.4 1008.5 0.0
25/07:30am 7.4 2.6 4.7 83 1.2 N 19 20 10 11 1008.0 1008.1 0.0
25/07:00am 7.4 2.4 4.5 82 1.3 N 20 26 11 14 1007.6 1007.7 0.0
25/06:30am 7.1 2.3 4.4 83 1.2 NNW 19 24 10 13 1007.2 1007.3 0.0
25/06:00am 6.8 2.3 4.3 84 1.1 NNW 17 22 9 12 1006.9 1007.0 0.0
25/05:30am 7.4 2.3 4.2 80 1.4 N 20 28 11 15 1006.4 1006.5 0.0
25/05:00am 7.7 2.7 4.5 80 1.4 NNW 20 30 11 16 1006.3 1006.4 0.0
25/04:30am 7.7 2.6 4.3 79 1.5 N 20 28 11 15 1006.0 1006.1 0.0
25/04:00am 7.4 2.3 4.2 80 1.4 NNW 20 28 11 15 1005.7 1005.8 0.0
25/03:30am 6.8 1.8 3.8 81 1.3 N 19 26 10 14 1005.4 1005.5 0.0
25/03:00am 6.9 2.4 4.0 82 1.3 N 17 26 9 14 1005.5 1005.6 0.0
25/02:30am 6.9 2.4 4.2 83 1.2 N 17 24 9 13 1005.5 1005.6 0.0
25/02:00am 6.8 2.4 4.6 86 1.0 N 17 20 9 11 1005.3 1005.4 0.0
25/01:30am 6.4 3.1 4.4 87 0.9 N 11 15 6 8 1005.3 1005.4 0.0
25/01:00am 6.8 3.1 4.5 85 1.0 N 13 17 7 9 1005.2 1005.3 0.0
25/12:30am 7.1 2.7 4.8 85 1.0 N 17 20 9 11 1005.1 1005.2 0.0
25/12:00am 7.2 3.1 4.5 83 1.2 N 15 22 8 12 1005.3 1005.4 0.0
 
Date/Time
EST
Temp
°C
App
Temp
°C
Dew
Point
°C
Rel
Hum
%
Delta-T
°C
Wind Press
QNH
hPa
Press
MSL
hPa
Rain since
9am
mm
Dir  Spd
km/h
Gust
km/h
Spd
kts
Gust
kts
24/11:30pm 7.4 3.3 4.2 80 1.4 N 15 20 8 11 1005.2 1005.3 0.0
24/11:00pm 8.4 3.4 4.6 77 1.7 NNW 20 30 11 16 1005.0 1005.1 0.0
24/10:30pm 8.3 3.5 4.7 78 1.6 NNW 19 24 10 13 1004.9 1005.0 0.0
24/10:00pm 8.5 4.1 4.9 78 1.6 N 17 22 9 12 1005.1 1005.2 0.0
24/09:30pm 8.3 4.0 5.4 82 1.3 N 17 24 9 13 1005.1 1005.2 0.0
24/09:00pm 8.2 3.0 5.3 82 1.3 N 22 33 12 18 1005.1 1005.2 0.0
24/08:30pm 8.1 2.7 4.7 79 1.5 N 22 33 12 18 1005.0 1005.1 0.0
24/08:00pm 8.5 2.7 4.5 76 1.8 N 24 35 13 19 1005.2 1005.3 0.0
24/07:30pm 9.0 2.2 5.2 77 1.7 N 30 41 16 22 1005.1 1005.2 0.0
24/07:00pm 8.9 3.3 5.6 80 1.5 N 24 35 13 19 1004.8 1004.9 0.0
24/06:30pm 8.7 2.8 5.6 81 1.4 NNE 26 35 14 19 1004.5 1004.6 0.0
24/06:00pm 8.6 3.3 5.0 78 1.6 N 22 33 12 18 1004.6 1004.7 0.0
24/05:30pm 8.7 3.9 5.6 81 1.4 NNE 20 30 11 16 1004.8 1004.9 0.0
24/05:00pm 9.0 3.1 5.6 79 1.6 NNE 26 35 14 19 1005.1 1005.2 0.0
24/04:30pm 9.0 3.8 5.4 78 1.6 N 22 35 12 19 1005.6 1005.7 0.0
24/04:00pm 9.3 4.1 5.3 76 1.8 N 22 37 12 20 1005.7 1005.8 0.0
24/03:30pm 9.2 2.4 5.2 76 1.8 N 30 39 16 21 1006.0 1006.1 0.0
24/03:00pm 10.5 3.4 5.7 72 2.2 N 32 41 17 22 1006.4 1006.5 0.0
24/02:30pm 10.5 4.9 5.5 71 2.3 N 24 37 13 20 1006.5 1006.6 0.0
24/02:00pm 9.5 3.0 4.9 73 2.1 N 28 39 15 21 1006.8 1006.9 0.0
24/01:30pm 9.9 3.5 5.3 73 2.1 N 28 43 15 23 1007.0 1007.1 0.0
24/01:06pm 10.5 4.2 5.5 71 2.3 N 28 46 15 25 1007.3 1007.4 0.0
24/01:00pm 9.7 2.5 5.1 73 2.1 N 32 46 17 25 1007.4 1007.5 0.0
24/12:38pm 9.3 2.0 4.7 73 2.1 N 32 50 17 27 1007.9 1008.0 0.0
24/12:30pm 9.1 1.6 4.7 74 2.0 N 33 46 18 25 1008.0 1008.1 0.0
24/12:00pm 9.8 2.5 5.4 74 2.0 N 33 52 18 28 1008.5 1008.6 0.0
24/11:52am 9.0 1.5 4.6 74 2.0 N 33 52 18 28 1008.6 1008.7 0.0
24/11:30am 9.0 1.5 4.4 73 2.0 N 33 46 18 25 1008.9 1009.0 0.0
24/11:00am 8.6 1.1 4.2 74 1.9 N 33 54 18 29 1009.5 1009.6 0.0
24/10:30am 8.4 1.2 5.0 79 1.5 N 32 44 17 24 1010.1 1010.2 0.0
24/10:00am 7.7 0.3 4.1 78 1.6 N 32 46 17 25 1009.9 1010.0 0.0
24/09:30am 6.7 0.0 3.9 82 1.2 N 28 35 15 19 1010.0 1010.1 0.0
24/09:00am 5.4 -1.0 3.4 87 0.8 N 26 41 14 22 1010.2 1010.3 0.8
24/08:30am 4.5 -1.3 2.5 87 0.8 N 22 37 12 20 1010.3 1010.4 0.8
24/08:00am 4.3 -1.1 2.2 86 0.8 N 20 30 11 16 1010.4 1010.5 0.8
24/07:30am 4.2 -0.7 2.2 87 0.8 NNW 17 26 9 14 1010.7 1010.8 0.8
24/07:00am 3.7 -0.4 2.1 89 0.6 N 13 15 7 8 1010.8 1010.9 0.8
24/06:30am 4.2 -0.6 2.4 88 0.7 N 17 20 9 11 1010.6 1010.7 0.8
24/06:00am 4.1 -0.7 2.6 90 0.6 N 17 22 9 12 1010.6 1010.7 0.8
24/05:30am 3.6 -1.3 2.1 90 0.6 N 17 20 9 11 1010.8 1010.9 0.8
24/05:00am 3.7 -0.8 1.9 88 0.7 N 15 19 8 10 1011.1 1011.2 0.8
24/04:30am 3.7 -0.4 2.1 89 0.6 N 13 17 7 9 1011.6 1011.8 0.8
24/04:00am 4.2 -1.1 2.1 86 0.8 N 19 24 10 13 1011.9 1012.1 0.8
24/03:30am 4.3 -0.2 2.2 86 0.8 N 15 19 8 10 1012.0 1012.2 0.8
24/03:00am 4.5 -0.4 2.0 84 1.0 N 17 22 9 12 1012.0 1012.2 0.8
24/02:30am 4.6 0.1 2.0 83 1.0 N 15 19 8 10 1012.2 1012.4 0.8
24/02:00am 5.1 0.2 2.3 82 1.1 NNW 17 20 9 11 1012.2 1012.4 0.8
24/01:30am 4.9 0.4 2.3 83 1.1 NNW 15 19 8 10 1012.0 1012.2 0.8
24/01:00am 5.1 0.7 2.8 85 0.9 NNW 15 19 8 10 1012.2 1012.4 0.8
24/12:30am 4.4 0.4 2.6 88 0.7 N 13 15 7 8 1012.4 1012.6 0.8
24/12:00am 4.6 0.9 2.6 87 0.8 NNW 11 15 6 8 1012.7 1012.9 0.8
 
Date/Time
EST
Temp
°C
App
Temp
°C
Dew
Point
°C
Rel
Hum
%
Delta-T
°C
Wind Press
QNH
hPa
Press
MSL
hPa
Rain since
9am
mm
Dir  Spd
km/h
Gust
km/h
Spd
kts
Gust
kts
23/11:30pm 5.1 1.1 3.0 86 0.9 N 13 17 7 9 1012.9 1013.1 0.8
23/11:00pm 6.0 2.0 3.0 81 1.2 NNW 13 17 7 9 1013.0 1013.2 0.8
23/10:30pm 6.6 2.4 3.6 81 1.3 NW 15 20 8 11 1012.9 1013.1 0.8
23/10:00pm 7.1 2.5 3.7 79 1.5 NW 17 24 9 13 1012.8 1013.0 0.8
23/09:30pm 7.2 2.7 4.0 80 1.4 NW 17 22 9 12 1012.9 1013.1 0.8
23/09:00pm 7.3 2.8 4.3 81 1.3 NW 17 22 9 12 1013.0 1013.2 0.8
23/08:30pm 7.1 3.5 4.8 85 1.0 NW 13 17 7 9 1012.8 1013.0 0.8
23/08:00pm 6.7 2.6 4.5 86 1.0 NW 15 20 8 11 1012.3 1012.5 0.8
23/07:30pm 6.5 1.7 4.8 89 0.7 WNW 19 22 10 12 1012.3 1012.5 0.8
23/07:00pm 7.6 2.8 4.4 80 1.4 W 19 24 10 13 1012.1 1012.3 0.6
23/06:30pm 7.3 3.2 4.3 81 1.3 WNW 15 20 8 11 1011.5 1011.7 0.6
23/06:00pm 7.2 2.1 4.2 81 1.3 WNW 20 26 11 14 1011.2 1011.3 0.6
23/05:30pm 7.7 1.8 4.1 78 1.6 WNW 24 32 13 17 1010.7 1010.8 0.6
23/05:00pm 7.8 2.0 4.6 80 1.4 W 24 32 13 17 1010.3 1010.4 0.6
23/04:30pm 7.8 1.3 4.6 80 1.4 W 28 35 15 19 1009.8 1009.9 0.6
23/04:00pm 8.1 2.0 5.0 81 1.4 W 26 37 14 20 1009.7 1009.8 0.6
23/03:30pm 7.7 2.9 5.7 87 0.9 W 20 28 11 15 1009.2 1009.3 0.4
23/03:28pm 7.5 2.3 5.6 88 0.9 W 22 30 12 16 1009.2 1009.3 0.4
23/03:18pm 7.3 -0.1 5.1 86 1.0 W 33 52 18 28 1009.2 1009.3 0.4
23/03:15pm 7.0 -1.2 4.7 85 1.0 W 37 52 20 28 1009.2 1009.3 0.4
23/03:00pm 8.6 0.9 3.6 71 2.2 WNW 33 44 18 24 1008.7 1008.8 0.0
23/02:33pm 8.4 0.9 4.6 77 1.7 W 33 52 18 28 1008.3 1008.4 0.0

Other Formats:

Comma delimited format used in spreadsheet applications
http://www.bom.gov.au/fwo/IDV60801/IDV60801.95866.axf

JavaScript Object Notation format (JSON) in row-major order
http://www.bom.gov.au/fwo/IDV60801/IDV60801.95866.json